createdAt,value
2019-05-07T00:03:38.867Z,6.50
2019-05-07T00:18:39.032Z,5.20
2019-05-07T00:33:39.238Z,6.60
2019-05-07T00:48:41.709Z,6.50
2019-05-07T01:03:42.503Z,8.80
2019-05-07T01:18:43.328Z,8.30
2019-05-07T01:33:43.527Z,9.60
2019-05-07T01:48:43.753Z,10.80
2019-05-07T02:03:43.929Z,11.40
2019-05-07T02:18:44.161Z,10.50
2019-05-07T02:33:44.366Z,13.70
2019-05-07T02:48:44.545Z,13.20
2019-05-07T03:03:45.091Z,13.50
2019-05-07T03:18:44.873Z,12.70
2019-05-07T03:33:46.979Z,15.80
2019-05-07T03:48:48.278Z,18.60
2019-05-07T04:03:48.466Z,21.30
2019-05-07T04:18:48.663Z,17.90
2019-05-07T04:33:48.981Z,19.40
2019-05-07T04:48:49.089Z,15.30
2019-05-07T05:03:49.272Z,15.30
2019-05-07T05:18:51.621Z,14.10
2019-05-07T05:33:52.736Z,11.60
2019-05-07T05:48:53.498Z,11.90
2019-05-07T06:03:53.702Z,11.30
2019-05-07T06:18:54.355Z,10.50
2019-05-07T06:33:54.523Z,10.20
2019-05-07T06:48:54.771Z,6.90
2019-05-07T07:03:54.849Z,7.40
2019-05-07T07:18:55.894Z,7.00
2019-05-07T07:33:56.374Z,8.90
2019-05-07T07:49:09.924Z,7.10
2019-05-07T08:04:02.983Z,4.60
2019-05-07T08:19:17.568Z,7.70
2019-05-07T08:34:08.608Z,5.00
2019-05-07T08:49:08.882Z,2.50
2019-05-07T09:04:09.070Z,4.80
2019-05-07T09:19:09.251Z,4.80
2019-05-07T09:34:09.335Z,4.10
2019-05-07T09:49:09.581Z,4.70
2019-05-07T10:04:09.812Z,7.20
2019-05-07T10:19:09.980Z,2.80
2019-05-07T10:34:12.221Z,3.00
2019-05-07T10:49:12.430Z,3.30
2019-05-07T11:04:12.874Z,5.50
2019-05-07T11:19:12.890Z,3.00
2019-05-07T11:34:13.881Z,4.10
2019-05-07T11:49:14.004Z,2.10
2019-05-07T12:04:14.212Z,4.10
2019-05-07T12:19:16.570Z,2.60
2019-05-07T12:34:16.459Z,2.30
2019-05-07T12:49:16.797Z,3.40
2019-05-07T13:04:16.974Z,3.90
2019-05-07T13:19:17.212Z,1.80
2019-05-07T13:34:17.507Z,5.00
2019-05-07T13:49:17.637Z,3.60
2019-05-07T14:04:17.832Z,4.10
2019-05-07T14:19:17.921Z,7.70
2019-05-07T14:34:18.239Z,4.40
2019-05-07T14:49:18.351Z,23.10
2019-05-07T15:04:18.543Z,3.70
2019-05-07T15:19:18.762Z,4.30
2019-05-07T15:34:18.889Z,2.90
2019-05-07T15:49:21.539Z,5.20
2019-05-07T16:04:23.206Z,4.40
2019-05-07T16:19:25.888Z,2.90
2019-05-07T16:34:25.968Z,7.70
2019-05-07T16:49:26.077Z,3.40
2019-05-07T17:04:26.223Z,3.10
2019-05-07T17:19:26.447Z,2.70
2019-05-07T17:34:26.603Z,2.00
2019-05-07T17:49:26.707Z,4.90
2019-05-07T18:04:26.849Z,5.10
2019-05-07T18:19:27.069Z,4.10
2019-05-07T18:34:27.274Z,7.40
2019-05-07T18:49:27.483Z,16.80
2019-05-07T19:04:30.123Z,15.40
2019-05-07T19:19:32.802Z,12.70
2019-05-07T19:34:33.016Z,24.10
2019-05-07T19:49:33.216Z,32.50
2019-05-07T20:04:35.116Z,25.30
2019-05-07T20:19:35.583Z,13.90
2019-05-07T20:34:35.894Z,9.80
2019-05-07T20:49:36.112Z,8.40
2019-05-07T21:04:36.428Z,11.10
2019-05-07T21:19:36.740Z,16.70
2019-05-07T21:34:37.014Z,22.60
2019-05-07T21:49:37.127Z,12.00
2019-05-07T22:04:37.437Z,19.20
2019-05-07T22:19:37.508Z,17.40
2019-05-07T22:34:37.797Z,14.90
2019-05-07T22:49:38.061Z,11.40
2019-05-07T23:04:38.364Z,12.10
2019-05-07T23:19:38.491Z,11.10
2019-05-07T23:34:38.666Z,10.10
2019-05-07T23:49:38.812Z,7.20
